createdAt,value
2023-10-31T00:00:35.567Z,100.00
2023-10-31T00:04:38.880Z,100.00
2023-10-31T00:08:41.014Z,100.00
2023-10-31T00:12:43.086Z,100.00
2023-10-31T00:16:45.282Z,100.00
2023-10-31T00:20:48.211Z,100.00
2023-10-31T00:24:50.230Z,100.00
2023-10-31T00:28:52.402Z,100.00
2023-10-31T00:32:54.540Z,100.00
2023-10-31T00:36:56.621Z,100.00
2023-10-31T00:40:58.745Z,100.00
2023-10-31T00:45:01.118Z,100.00
2023-10-31T00:49:04.839Z,100.00
2023-10-31T00:53:08.219Z,100.00
2023-10-31T00:57:10.414Z,100.00
2023-10-31T01:01:12.560Z,100.00
2023-10-31T01:05:15.736Z,100.00
2023-10-31T01:09:18.168Z,100.00
2023-10-31T01:13:20.587Z,100.00
2023-10-31T01:17:22.954Z,100.00
2023-10-31T01:21:25.217Z,100.00
2023-10-31T01:25:27.321Z,100.00
2023-10-31T01:29:29.413Z,100.00
2023-10-31T01:33:32.601Z,100.00
2023-10-31T01:37:34.782Z,100.00
2023-10-31T01:41:37.545Z,100.00
2023-10-31T01:45:39.675Z,100.00
2023-10-31T01:49:42.127Z,100.00
2023-10-31T01:53:44.244Z,100.00
2023-10-31T01:57:48.313Z,100.00
2023-10-31T02:01:51.017Z,100.00
2023-10-31T02:05:57.666Z,100.00
2023-10-31T02:10:05.166Z,100.00
2023-10-31T02:14:10.808Z,100.00
2023-10-31T02:18:14.482Z,100.00
2023-10-31T02:22:16.515Z,100.00
2023-10-31T02:26:19.160Z,100.00
2023-10-31T02:30:21.720Z,100.00
2023-10-31T02:34:23.787Z,100.00
2023-10-31T02:38:25.879Z,100.00
2023-10-31T02:42:33.737Z,100.00
2023-10-31T02:47:00.617Z,100.00
2023-10-31T02:51:02.905Z,100.00
2023-10-31T02:55:05.420Z,100.00
2023-10-31T02:59:07.815Z,100.00
2023-10-31T03:03:10.064Z,100.00
2023-10-31T03:07:12.207Z,100.00
2023-10-31T03:11:28.111Z,100.00
2023-10-31T03:15:32.411Z,100.00
2023-10-31T03:19:34.493Z,100.00
2023-10-31T03:23:36.524Z,100.00
2023-10-31T03:27:38.929Z,100.00
2023-10-31T03:31:41.042Z,100.00
2023-10-31T03:35:45.064Z,100.00
2023-10-31T03:39:47.192Z,100.00
2023-10-31T03:43:49.234Z,100.00
2023-10-31T03:47:51.297Z,100.00
2023-10-31T03:51:53.539Z,100.00
2023-10-31T03:55:55.577Z,100.00
2023-10-31T03:59:57.699Z,100.00
2023-10-31T04:16:25.694Z,100.00
2023-10-31T04:20:27.838Z,100.00
2023-10-31T04:24:29.928Z,100.00
2023-10-31T04:28:31.996Z,100.00
2023-10-31T04:32:34.125Z,100.00
2023-10-31T04:36:36.198Z,100.00
2023-10-31T04:40:38.253Z,100.00
2023-10-31T04:44:40.375Z,100.00
2023-10-31T04:48:42.477Z,100.00
2023-10-31T04:52:44.748Z,100.00
2023-10-31T04:56:48.821Z,100.00
2023-10-31T05:00:50.855Z,100.00
2023-10-31T05:04:53.112Z,100.00
2023-10-31T05:08:55.190Z,100.00
2023-10-31T05:12:58.162Z,100.00
2023-10-31T05:17:00.229Z,100.00
2023-10-31T05:21:02.297Z,100.00
2023-10-31T05:25:04.956Z,100.00
2023-10-31T05:47:45.061Z,100.00
2023-10-31T05:51:57.144Z,100.00
2023-10-31T05:56:03.312Z,100.00
2023-10-31T06:00:11.911Z,100.00
2023-10-31T06:04:18.665Z,100.00
2023-10-31T06:08:24.711Z,100.00
2023-10-31T06:12:28.361Z,100.00
2023-10-31T06:16:30.728Z,100.00
2023-10-31T06:20:32.883Z,100.00
2023-10-31T06:24:35.016Z,100.00
2023-10-31T06:28:41.553Z,100.00
2023-10-31T06:32:47.958Z,100.00
2023-10-31T06:36:50.059Z,100.00
2023-10-31T06:40:52.209Z,100.00
2023-10-31T06:44:54.859Z,100.00
2023-10-31T06:48:56.950Z,100.00
2023-10-31T06:52:59.020Z,100.00
2023-10-31T06:57:02.612Z,100.00
2023-10-31T07:01:04.936Z,100.00
2023-10-31T07:05:07.434Z,100.00
2023-10-31T07:09:10.507Z,100.00
2023-10-31T07:13:13.399Z,100.00
2023-10-31T07:17:15.602Z,100.00
2023-10-31T07:21:18.006Z,100.00
2023-10-31T07:25:20.224Z,100.00
2023-10-31T07:29:22.892Z,100.00
2023-10-31T07:33:25.418Z,100.00
2023-10-31T07:37:27.597Z,100.00
2023-10-31T07:41:30.849Z,100.00
2023-10-31T07:45:34.973Z,100.00
2023-10-31T07:49:37.024Z,100.00
2023-10-31T07:53:39.070Z,100.00
2023-10-31T07:57:41.263Z,100.00
2023-10-31T08:01:43.376Z,100.00
2023-10-31T08:05:45.515Z,100.00
2023-10-31T08:09:47.660Z,100.00
2023-10-31T08:13:49.748Z,100.00
2023-10-31T08:17:52.019Z,100.00
2023-10-31T08:21:55.837Z,100.00
2023-10-31T08:25:59.204Z,100.00
2023-10-31T08:30:01.293Z,100.00
2023-10-31T08:34:03.322Z,100.00
2023-10-31T08:38:05.676Z,100.00
2023-10-31T08:42:08.487Z,100.00
2023-10-31T08:46:10.494Z,100.00
2023-10-31T08:50:12.730Z,100.00
2023-10-31T08:54:14.918Z,100.00
2023-10-31T08:58:19.424Z,100.00
2023-10-31T09:02:21.371Z,100.00
2023-10-31T09:06:23.455Z,100.00
2023-10-31T09:10:25.520Z,100.00
2023-10-31T09:14:28.218Z,100.00
2023-10-31T09:18:30.446Z,100.00
2023-10-31T09:22:32.490Z,100.00
2023-10-31T09:26:34.822Z,100.00
2023-10-31T09:30:37.059Z,100.00
2023-10-31T09:34:39.136Z,100.00
2023-10-31T09:38:41.631Z,100.00
2023-10-31T09:42:44.901Z,100.00
2023-10-31T09:46:48.069Z,100.00
2023-10-31T09:50:51.698Z,100.00
2023-10-31T09:54:54.572Z,100.00
2023-10-31T09:58:56.833Z,100.00
2023-10-31T10:02:59.434Z,100.00
2023-10-31T10:07:03.581Z,100.00
2023-10-31T10:11:06.685Z,100.00
2023-10-31T10:15:09.226Z,100.00
2023-10-31T10:19:21.137Z,100.00
2023-10-31T10:23:24.348Z,100.00
2023-10-31T10:27:26.559Z,100.00
2023-10-31T10:31:28.636Z,100.00
2023-10-31T10:35:30.740Z,100.00
2023-10-31T10:39:35.606Z,100.00
2023-10-31T10:43:40.340Z,100.00
2023-10-31T10:47:49.446Z,91.03
2023-10-31T10:52:03.220Z,89.96
2023-10-31T10:56:14.214Z,89.83
2023-10-31T11:00:17.842Z,96.81
2023-10-31T11:04:20.448Z,95.46
2023-10-31T11:08:24.981Z,95.04
2023-10-31T11:12:27.342Z,97.68
2023-10-31T11:16:44.095Z,90.37
2023-10-31T11:20:46.420Z,95.35
2023-10-31T11:24:51.091Z,90.50
2023-10-31T11:28:53.190Z,94.03
2023-10-31T11:33:06.530Z,88.53
2023-10-31T11:37:28.239Z,79.70
2023-10-31T11:41:33.922Z,89.15
2023-10-31T11:45:43.311Z,84.72
2023-10-31T11:49:51.176Z,84.29
2023-10-31T11:53:53.847Z,89.54
2023-10-31T11:57:56.066Z,92.02
2023-10-31T12:01:58.189Z,88.88
2023-10-31T12:06:03.121Z,91.27
2023-10-31T12:10:06.351Z,93.87
2023-10-31T12:14:08.313Z,95.12
2023-10-31T12:18:10.749Z,91.10
2023-10-31T12:22:16.524Z,90.95
2023-10-31T12:26:23.190Z,91.35
2023-10-31T12:30:25.258Z,91.43
2023-10-31T12:34:28.243Z,89.82
2023-10-31T12:38:30.847Z,87.36
2023-10-31T12:42:34.138Z,83.58
2023-10-31T12:46:36.469Z,84.46
2023-10-31T12:50:41.588Z,82.63
2023-10-31T12:54:43.683Z,85.48
2023-10-31T12:58:46.174Z,85.06
2023-10-31T13:02:48.608Z,85.02
2023-10-31T13:07:04.445Z,71.95
2023-10-31T13:11:10.395Z,73.44
2023-10-31T13:15:12.513Z,73.34
2023-10-31T13:19:14.466Z,77.60
2023-10-31T13:23:16.493Z,79.71
2023-10-31T13:27:18.569Z,82.71
2023-10-31T13:31:20.713Z,81.68
2023-10-31T13:35:22.918Z,85.98
2023-10-31T13:39:25.173Z,96.79
2023-10-31T13:43:27.348Z,100.00
2023-10-31T13:47:31.399Z,100.00
2023-10-31T13:51:33.819Z,100.00
2023-10-31T13:55:35.897Z,100.00
2023-10-31T13:59:38.170Z,100.00
2023-10-31T14:03:42.970Z,100.00
2023-10-31T14:07:45.669Z,100.00
2023-10-31T14:11:47.772Z,100.00
2023-10-31T14:42:45.468Z,100.00
2023-10-31T14:46:48.002Z,100.00
2023-10-31T14:50:50.432Z,100.00
2023-10-31T14:54:52.810Z,100.00
2023-10-31T14:58:54.891Z,100.00
2023-10-31T15:02:58.059Z,100.00
2023-10-31T15:07:00.248Z,100.00
2023-10-31T15:11:02.925Z,100.00
2023-10-31T15:15:05.384Z,100.00
2023-10-31T15:19:08.018Z,100.00
2023-10-31T15:23:10.248Z,100.00
2023-10-31T15:27:15.195Z,100.00
2023-10-31T15:31:17.382Z,100.00
2023-10-31T15:35:19.560Z,100.00
2023-10-31T15:39:23.210Z,100.00
2023-10-31T15:43:25.383Z,100.00
2023-10-31T15:47:27.569Z,100.00
2023-10-31T15:51:30.580Z,100.00
2023-10-31T15:55:32.746Z,100.00
2023-10-31T15:59:35.368Z,100.00
2023-10-31T16:03:37.642Z,100.00
2023-10-31T16:07:40.396Z,100.00
2023-10-31T16:11:42.416Z,100.00
2023-10-31T16:15:44.645Z,100.00
2023-10-31T16:19:46.700Z,100.00
2023-10-31T16:23:51.790Z,100.00
2023-10-31T16:27:53.840Z,100.00
2023-10-31T16:31:56.208Z,100.00
2023-10-31T16:35:58.275Z,100.00
2023-10-31T16:40:00.393Z,100.00
2023-10-31T16:44:02.454Z,100.00
2023-10-31T16:48:05.534Z,100.00
2023-10-31T16:52:07.573Z,100.00
2023-10-31T16:56:09.692Z,100.00
2023-10-31T17:00:12.575Z,100.00
2023-10-31T17:04:14.704Z,100.00
2023-10-31T17:08:17.129Z,100.00
2023-10-31T17:12:19.157Z,100.00
2023-10-31T17:16:21.511Z,100.00
2023-10-31T17:20:23.973Z,100.00
2023-10-31T17:24:26.098Z,100.00
2023-10-31T17:28:28.744Z,100.00
2023-10-31T17:32:32.672Z,100.00
2023-10-31T17:36:34.767Z,100.00
2023-10-31T17:40:36.909Z,100.00
2023-10-31T17:44:39.153Z,100.00
2023-10-31T17:48:41.519Z,100.00
2023-10-31T17:52:43.577Z,100.00
2023-10-31T17:56:45.692Z,100.00
2023-10-31T18:00:47.844Z,100.00
2023-10-31T18:04:49.996Z,100.00
2023-10-31T18:08:52.178Z,100.00
2023-10-31T18:12:54.376Z,100.00
2023-10-31T18:16:56.469Z,100.00
2023-10-31T18:21:02.291Z,100.00
2023-10-31T18:25:05.289Z,100.00
2023-10-31T18:29:07.789Z,100.00
2023-10-31T18:33:09.929Z,100.00
2023-10-31T18:37:12.869Z,100.00
2023-10-31T18:41:16.305Z,100.00
2023-10-31T18:45:18.595Z,100.00
2023-10-31T18:49:20.712Z,100.00
2023-10-31T18:53:22.795Z,100.00
2023-10-31T18:57:25.501Z,100.00
2023-10-31T19:01:27.671Z,100.00
2023-10-31T19:05:33.137Z,100.00
2023-10-31T19:09:35.540Z,100.00
2023-10-31T19:13:37.796Z,100.00
2023-10-31T19:17:42.218Z,100.00
2023-10-31T19:21:44.380Z,100.00
2023-10-31T19:25:46.384Z,100.00
2023-10-31T19:29:48.601Z,100.00
2023-10-31T19:33:51.303Z,100.00
2023-10-31T19:37:53.490Z,100.00
2023-10-31T19:41:58.010Z,100.00
2023-10-31T19:46:04.626Z,100.00
2023-10-31T19:50:07.280Z,100.00
2023-10-31T19:54:09.711Z,100.00
2023-10-31T19:58:11.781Z,100.00
2023-10-31T20:02:16.850Z,100.00
2023-10-31T20:06:20.727Z,100.00
2023-10-31T20:10:22.805Z,100.00
2023-10-31T20:14:24.960Z,100.00
2023-10-31T20:18:28.716Z,100.00
2023-10-31T20:22:30.844Z,100.00
2023-10-31T20:26:32.995Z,100.00
2023-10-31T20:30:35.384Z,100.00
2023-10-31T20:34:37.542Z,100.00
2023-10-31T20:38:40.136Z,100.00
2023-10-31T20:42:43.949Z,100.00
2023-10-31T20:46:47.723Z,100.00
2023-10-31T20:50:50.940Z,100.00
2023-10-31T20:54:53.067Z,100.00
2023-10-31T20:58:55.550Z,100.00
2023-10-31T21:03:05.608Z,100.00
2023-10-31T21:07:09.017Z,100.00
2023-10-31T21:11:11.115Z,100.00
2023-10-31T21:15:13.383Z,100.00
2023-10-31T21:19:21.507Z,100.00
2023-10-31T21:23:29.943Z,100.00
2023-10-31T21:27:32.148Z,100.00
2023-10-31T21:31:34.342Z,100.00
2023-10-31T21:35:36.429Z,100.00
2023-10-31T21:39:41.894Z,100.00
2023-10-31T21:43:44.209Z,100.00
2023-10-31T21:47:46.382Z,100.00
2023-10-31T21:51:48.444Z,100.00
2023-10-31T21:55:50.465Z,100.00
2023-10-31T21:59:52.489Z,100.00
2023-10-31T22:03:54.700Z,100.00
2023-10-31T22:07:56.885Z,100.00
2023-10-31T22:11:59.273Z,100.00
2023-10-31T22:16:01.787Z,100.00
2023-10-31T22:20:06.273Z,100.00
2023-10-31T22:24:08.512Z,100.00
2023-10-31T22:28:10.803Z,100.00
2023-10-31T22:32:12.814Z,100.00
2023-10-31T22:36:14.994Z,100.00
2023-10-31T22:40:17.252Z,100.00
2023-10-31T22:44:19.524Z,100.00
2023-10-31T22:48:22.344Z,100.00
2023-10-31T22:52:24.525Z,100.00
2023-10-31T22:56:26.612Z,100.00
2023-10-31T23:00:29.358Z,100.00
2023-10-31T23:04:31.448Z,100.00
2023-10-31T23:08:33.458Z,100.00
2023-10-31T23:12:36.152Z,100.00
2023-10-31T23:16:38.436Z,100.00
2023-10-31T23:20:40.735Z,100.00
2023-10-31T23:24:47.778Z,100.00
2023-10-31T23:28:49.880Z,100.00
2023-10-31T23:32:52.810Z,100.00
2023-10-31T23:36:55.011Z,100.00
2023-10-31T23:40:57.139Z,100.00
2023-10-31T23:44:59.655Z,100.00
2023-10-31T23:49:01.672Z,100.00
2023-10-31T23:53:03.992Z,100.00
2023-10-31T23:57:06.110Z,100.00
